Time;durP1;ratioP1;P1;durP2;ratioP2;P2;SDS_P1;SDS_P2;PMS_P1;PMS_P2;Temp;Humidity;BMP_temperature;BMP_pressure;BME280_temperature;BME280_humidity;BME280_pressure;Samples;Min_cycle;Max_cycle;Signal;HPM_P1;HPM_P2
2021/12/04 00:02:22;;;;;;;28.65;17.67;;;4.80;99.90;;;;;;5091795;28;20035;-66
2021/12/04 00:04:51;;;;;;;24.60;17.05;;;4.80;99.90;;;;;;5092949;28;20404;-67
2021/12/04 00:07:17;;;;;;;27.95;17.63;;;4.80;99.90;;;;;;5092187;28;20229;-66
2021/12/04 00:09:46;;;;;;;28.13;17.33;;;4.80;99.90;;;;;;5093014;28;20119;-66
2021/12/04 00:12:13;;;;;;;25.27;17.25;;;4.80;99.90;;;;;;5094824;28;20355;-66
2021/12/04 00:14:41;;;;;;;26.65;16.92;;;4.80;99.90;;;;;;5095691;28;20055;-67
2021/12/04 00:17:06;;;;;;;29.13;18.20;;;4.80;99.90;;;;;;5095798;28;20059;-66
2021/12/04 00:19:33;;;;;;;25.58;16.60;;;4.80;99.90;;;;;;5096601;28;20128;-66
2021/12/04 00:21:59;;;;;;;25.45;16.08;;;4.80;99.90;;;;;;5095952;28;20403;-66
2021/12/04 00:24:25;;;;;;;27.45;16.92;;;4.80;99.90;;;;;;5095338;28;20028;-65
2021/12/04 00:26:52;;;;;;;24.17;16.13;;;4.80;99.90;;;;;;5095312;28;20118;-66
2021/12/04 00:29:18;;;;;;;28.40;17.88;;;4.90;99.90;;;;;;5095695;28;20388;-66
2021/12/04 00:31:53;;;;;;;22.77;15.55;;;4.80;99.90;;;;;;5096532;28;20052;-65
2021/12/04 00:34:22;;;;;;;23.33;15.27;;;4.80;99.90;;;;;;5095314;28;20395;-66
2021/12/04 00:37:14;;;;;;;25.17;16.02;;;4.80;99.90;;;;;;5095610;28;20051;-66
2021/12/04 00:50:37;;;;;;;20.97;15.23;;;4.80;99.90;;;;;;5096555;28;20155;-68
2021/12/04 00:53:03;;;;;;;20.98;14.80;;;4.80;99.90;;;;;;5088681;28;20520;-67
2021/12/04 00:55:29;;;;;;;22.65;15.40;;;4.80;99.90;;;;;;5074917;28;20362;-66
2021/12/04 00:57:55;;;;;;;22.48;15.25;;;4.80;99.90;;;;;;5089329;28;20036;-66
2021/12/04 01:00:22;;;;;;;20.77;13.95;;;4.80;99.90;;;;;;5095720;28;20429;-68
2021/12/04 01:02:47;;;;;;;19.75;14.02;;;4.80;99.90;;;;;;5096123;28;20346;-67
2021/12/04 01:05:13;;;;;;;21.00;14.70;;;4.90;99.90;;;;;;5094520;28;20449;-67
2021/12/04 01:07:39;;;;;;;19.25;13.68;;;4.80;99.90;;;;;;5077592;28;20157;-67
2021/12/04 01:10:08;;;;;;;20.50;14.85;;;4.80;99.90;;;;;;5094857;28;20036;-66
2021/12/04 01:12:34;;;;;;;19.38;13.10;;;4.80;99.90;;;;;;5095403;28;20056;-67
2021/12/04 01:15:00;;;;;;;21.02;14.48;;;4.80;99.90;;;;;;5095227;28;20051;-66
2021/12/04 01:17:25;;;;;;;17.45;13.13;;;4.80;99.90;;;;;;5094710;28;20036;-67
2021/12/04 01:19:51;;;;;;;18.85;13.55;;;4.90;99.90;;;;;;5095878;28;20040;-68
2021/12/04 01:22:20;;;;;;;17.20;12.82;;;4.80;99.90;;;;;;5094097;28;20168;-67
2021/12/04 01:24:46;;;;;;;15.80;12.73;;;4.80;99.90;;;;;;5094041;28;20518;-66
2021/12/04 01:27:13;;;;;;;14.32;11.75;;;4.80;99.90;;;;;;5094527;28;20360;-67
2021/12/04 01:29:40;;;;;;;15.45;11.80;;;4.80;99.90;;;;;;5077656;28;20097;-67
2021/12/04 01:32:08;;;;;;;15.52;11.50;;;4.80;99.90;;;;;;5094242;28;20040;-66
2021/12/04 01:34:34;;;;;;;14.98;11.25;;;4.80;99.90;;;;;;5093900;28;20044;-67
2021/12/04 01:37:02;;;;;;;14.75;11.52;;;4.80;99.90;;;;;;5094099;28;20082;-67
2021/12/04 01:39:27;;;;;;;15.55;11.13;;;4.80;99.90;;;;;;5094523;28;20123;-66
2021/12/04 01:41:53;;;;;;;14.10;11.00;;;4.80;99.90;;;;;;5094358;28;20123;-67
2021/12/04 01:44:19;;;;;;;13.30;10.85;;;4.80;99.90;;;;;;5093801;28;20046;-66
2021/12/04 01:46:45;;;;;;;15.07;11.60;;;4.80;99.90;;;;;;5094998;28;20354;-67
2021/12/04 01:49:11;;;;;;;13.82;10.45;;;4.80;99.90;;;;;;5095398;28;20036;-67
2021/12/04 01:51:37;;;;;;;13.82;10.30;;;4.90;99.90;;;;;;5093934;28;20039;-68
2021/12/04 01:54:03;;;;;;;12.75;10.18;;;4.90;99.90;;;;;;5062235;28;20080;-67
2021/12/04 01:56:36;;;;;;;12.98;10.25;;;4.80;99.90;;;;;;5075152;28;20090;-66
2021/12/04 01:59:03;;;;;;;14.25;11.02;;;4.80;99.90;;;;;;5073768;28;20028;-67
2021/12/04 02:01:31;;;;;;;12.18;10.23;;;4.80;99.90;;;;;;5074552;28;20040;-67
2021/12/04 02:03:57;;;;;;;13.65;10.57;;;4.80;99.90;;;;;;5073075;28;20127;-67
2021/12/04 02:06:22;;;;;;;14.20;10.85;;;4.80;99.90;;;;;;5056963;28;20148;-67
2021/12/04 02:08:48;;;;;;;13.50;10.35;;;4.80;99.90;;;;;;5093446;28;20104;-66
2021/12/04 02:11:14;;;;;;;12.45;10.23;;;4.80;99.90;;;;;;5093313;28;20145;-66
2021/12/04 02:13:40;;;;;;;14.40;11.02;;;4.80;99.90;;;;;;5093633;28;20090;-66
2021/12/04 02:16:16;;;;;;;12.95;10.77;;;4.80;99.90;;;;;;5093445;28;20044;-66
2021/12/04 02:18:42;;;;;;;12.15;10.70;;;4.80;99.90;;;;;;5093463;28;20035;-67
2021/12/04 02:21:08;;;;;;;13.55;10.90;;;4.70;99.90;;;;;;5093975;28;20089;-67
2021/12/04 02:23:34;;;;;;;14.00;10.63;;;4.70;99.90;;;;;;5093482;28;20048;-66
2021/12/04 02:25:59;;;;;;;13.00;10.35;;;4.70;99.90;;;;;;5094279;28;20174;-66
2021/12/04 02:28:25;;;;;;;14.68;11.05;;;4.70;99.90;;;;;;5092984;28;20040;-66
2021/12/04 02:30:51;;;;;;;13.75;10.80;;;4.70;99.90;;;;;;5094313;28;20047;-67
2021/12/04 02:33:18;;;;;;;13.50;10.85;;;4.80;99.90;;;;;;5092239;28;20742;-66
2021/12/04 02:35:55;;;;;;;14.77;11.40;;;4.80;99.90;;;;;;5092714;28;20044;-67
2021/12/04 02:38:24;;;;;;;15.02;11.73;;;4.80;99.90;;;;;;5093987;28;20046;-67
2021/12/04 02:40:52;;;;;;;14.57;11.63;;;4.80;99.90;;;;;;5094026;28;20508;-67
2021/12/04 02:43:18;;;;;;;15.75;11.82;;;4.80;99.90;;;;;;5094400;28;20036;-67
2021/12/04 02:45:44;;;;;;;16.52;11.82;;;4.70;99.90;;;;;;5093691;28;20046;-67
2021/12/04 02:48:10;;;;;;;14.93;11.18;;;4.70;99.90;;;;;;5093870;28;20043;-66
2021/12/04 02:50:37;;;;;;;15.02;11.35;;;4.70;99.90;;;;;;5093685;28;20069;-66
2021/12/04 02:53:02;;;;;;;14.95;11.40;;;4.80;99.90;;;;;;5086652;28;20036;-67
2021/12/04 02:55:28;;;;;;;15.27;11.82;;;4.80;99.90;;;;;;5072493;28;20147;-67
2021/12/04 02:57:54;;;;;;;14.60;11.93;;;4.80;99.90;;;;;;5084682;28;20119;-66
2021/12/04 03:00:24;;;;;;;14.80;10.27;;;4.70;99.90;;;;;;5092948;28;20038;-66
2021/12/04 03:02:50;;;;;;;15.15;11.48;;;4.80;99.90;;;;;;5092638;28;20069;-66
2021/12/04 03:05:23;;;;;;;13.38;10.93;;;4.80;99.90;;;;;;5092620;28;20044;-66
2021/12/04 03:07:50;;;;;;;15.73;11.48;;;4.70;99.90;;;;;;5093608;28;20100;-66
2021/12/04 03:10:16;;;;;;;12.77;10.02;;;4.70;99.90;;;;;;5093817;28;20078;-66
2021/12/04 03:12:42;;;;;;;15.18;10.38;;;4.70;99.90;;;;;;5093216;28;20437;-67
2021/12/04 03:15:08;;;;;;;13.20;10.57;;;4.80;99.90;;;;;;5093393;28;20036;-67
2021/12/04 03:17:34;;;;;;;14.52;10.82;;;4.70;99.90;;;;;;5092207;28;20119;-67
2021/12/04 03:20:00;;;;;;;13.93;10.63;;;4.80;99.90;;;;;;5093670;28;20124;-66
2021/12/04 03:22:26;;;;;;;12.80;10.43;;;4.80;99.90;;;;;;5093698;28;20035;-66
2021/12/04 03:24:54;;;;;;;14.15;10.85;;;4.80;99.90;;;;;;5093339;28;20044;-66
2021/12/04 03:27:20;;;;;;;12.80;10.57;;;4.80;99.90;;;;;;5092241;28;20043;-67
2021/12/04 03:29:49;;;;;;;14.50;10.18;;;4.80;99.90;;;;;;5092281;28;20044;-67
2021/12/04 03:42:55;;;;;;;13.43;10.20;;;4.70;99.90;;;;;;5093561;28;20048;-66
2021/12/04 03:45:21;;;;;;;12.73;9.85;;;4.70;99.90;;;;;;5094124;28;20051;-67
2021/12/04 03:47:49;;;;;;;12.85;9.60;;;4.70;99.90;;;;;;5097218;28;20118;-67
2021/12/04 03:50:15;;;;;;;13.00;10.07;;;4.80;99.90;;;;;;5097542;28;20059;-67
2021/12/04 03:52:41;;;;;;;12.70;9.30;;;4.80;99.90;;;;;;5093142;28;20350;-66
2021/12/04 03:55:08;;;;;;;13.75;9.73;;;4.70;99.90;;;;;;5076755;28;20032;-66
2021/12/04 03:57:35;;;;;;;12.65;8.95;;;4.80;99.90;;;;;;5085808;28;20032;-67
2021/12/04 04:00:01;;;;;;;12.52;9.90;;;4.80;99.90;;;;;;5097241;28;20054;-66
2021/12/04 04:02:28;;;;;;;13.25;9.80;;;4.80;99.90;;;;;;5097191;28;20067;-66
2021/12/04 04:04:54;;;;;;;12.27;9.85;;;4.80;99.90;;;;;;5097131;28;20036;-67
2021/12/04 04:07:21;;;;;;;12.95;9.93;;;4.80;99.90;;;;;;5097125;28;20039;-67
2021/12/04 04:09:47;;;;;;;12.18;9.73;;;4.70;99.90;;;;;;5097014;28;20055;-66
2021/12/04 04:12:13;;;;;;;11.60;8.93;;;4.80;99.90;;;;;;5096829;28;20064;-66
2021/12/04 04:14:38;;;;;;;12.98;9.68;;;4.80;99.90;;;;;;5096592;28;20075;-67
2021/12/04 04:17:04;;;;;;;11.75;9.57;;;4.80;99.90;;;;;;5095464;28;20036;-66
2021/12/04 04:19:30;;;;;;;12.50;9.90;;;4.80;99.90;;;;;;5096990;28;20048;-65
2021/12/04 04:21:58;;;;;;;12.13;9.68;;;4.80;99.90;;;;;;5095646;28;20040;-67
2021/12/04 04:24:26;;;;;;;12.43;8.93;;;4.80;99.90;;;;;;5095541;28;20035;-67
2021/12/04 04:26:52;;;;;;;12.45;9.77;;;4.80;99.90;;;;;;5095727;28;20113;-65
2021/12/04 04:29:19;;;;;;;12.52;9.75;;;4.90;99.90;;;;;;5096764;28;20036;-67
2021/12/04 04:31:48;;;;;;;12.50;9.40;;;4.80;99.90;;;;;;5096563;28;20032;-67
2021/12/04 04:34:23;;;;;;;11.68;9.50;;;4.80;99.90;;;;;;5095980;28;20449;-66
2021/12/04 05:12:46;;;;;;;15.52;10.52;;;4.80;99.90;;;;;;5095614;28;20048;-66
2021/12/04 05:15:17;;;;;;;15.10;10.60;;;4.80;99.90;;;;;;5095449;28;20086;-66
2021/12/04 05:20:21;;;;;;;16.10;11.40;;;4.80;99.90;;;;;;5095877;28;20100;-67
2021/12/04 05:22:47;;;;;;;13.75;10.63;;;4.90;99.90;;;;;;5094901;28;20155;-66
2021/12/04 05:25:13;;;;;;;16.52;11.32;;;4.80;99.90;;;;;;5095166;28;20145;-66
2021/12/04 05:27:39;;;;;;;15.98;10.77;;;4.90;99.90;;;;;;5093895;28;20167;-67
2021/12/04 05:30:06;;;;;;;16.08;10.52;;;4.90;99.90;;;;;;5074705;28;20052;-66
2021/12/04 05:32:32;;;;;;;15.95;11.65;;;4.90;99.90;;;;;;5074338;28;20076;-66
2021/12/04 05:34:58;;;;;;;16.20;11.63;;;4.90;99.90;;;;;;5073133;28;20051;-66
2021/12/04 05:37:23;;;;;;;15.95;11.02;;;4.90;99.90;;;;;;5077024;28;20032;-66
2021/12/04 05:39:49;;;;;;;16.83;11.68;;;4.90;99.90;;;;;;5073305;28;20032;-66
2021/12/04 05:42:15;;;;;;;17.98;11.05;;;4.90;99.90;;;;;;5074680;28;20166;-66
2021/12/04 05:44:42;;;;;;;16.33;11.07;;;4.80;99.90;;;;;;5074145;28;20032;-67
2021/12/04 05:49:51;;;;;;;16.02;11.77;;;4.90;99.90;;;;;;5073271;28;20092;-66
2021/12/04 05:55:07;;;;;;;17.77;12.07;;;4.90;99.90;;;;;;5072652;28;20039;-67
2021/12/04 05:57:31;;;;;;;17.92;12.57;;;4.90;99.90;;;;;;5074079;28;20436;-66
2021/12/04 05:59:57;;;;;;;19.67;12.48;;;4.90;99.90;;;;;;5074212;28;20111;-66
2021/12/04 06:02:23;;;;;;;16.60;11.88;;;4.80;99.90;;;;;;5073335;28;20143;-66
2021/12/04 06:04:49;;;;;;;18.60;12.15;;;4.80;99.90;;;;;;5073843;28;20119;-66
2021/12/04 06:07:14;;;;;;;19.30;12.02;;;4.90;99.90;;;;;;5079256;28;20129;-66
2021/12/04 06:09:40;;;;;;;18.35;12.18;;;4.90;99.90;;;;;;5093672;28;20044;-66
2021/12/04 06:12:08;;;;;;;18.75;12.73;;;4.90;99.90;;;;;;5094421;28;20088;-67
2021/12/04 06:14:34;;;;;;;18.30;12.60;;;4.90;99.90;;;;;;5094151;28;20489;-66
2021/12/04 06:17:00;;;;;;;23.77;12.80;;;4.90;99.90;;;;;;5093129;28;20048;-66
2021/12/04 06:24:59;;;;;;;17.00;12.02;;;4.90;99.90;;;;;;5093895;28;20040;-65
2021/12/04 06:27:24;;;;;;;20.55;13.23;;;4.90;99.90;;;;;;5094389;28;20032;-66
2021/12/04 06:29:50;;;;;;;22.02;13.05;;;4.90;99.90;;;;;;5094559;28;20040;-68
2021/12/04 06:32:16;;;;;;;21.00;13.30;;;4.90;99.90;;;;;;5094336;28;20730;-66
2021/12/04 06:34:41;;;;;;;17.92;12.35;;;4.90;99.90;;;;;;5092999;28;20122;-66
2021/12/04 06:37:08;;;;;;;21.40;12.75;;;4.90;99.90;;;;;;5093508;28;20047;-66
2021/12/04 06:39:33;;;;;;;23.83;13.02;;;4.90;99.90;;;;;;5094058;28;20104;-65
2021/12/04 06:41:59;;;;;;;21.38;13.57;;;4.90;99.90;;;;;;5094436;28;20122;-66
2021/12/04 06:44:25;;;;;;;21.17;13.15;;;4.90;99.90;;;;;;5093769;28;20062;-66
2021/12/04 06:46:51;;;;;;;22.73;13.68;;;4.90;99.90;;;;;;5093966;28;20040;-66
2021/12/04 06:49:21;;;;;;;19.63;13.25;;;4.90;99.90;;;;;;5094245;28;20528;-66
2021/12/04 06:51:53;;;;;;;24.25;13.23;;;4.90;99.90;;;;;;5093908;28;20848;-66
2021/12/04 06:54:23;;;;;;;22.48;13.55;;;5.00;99.90;;;;;;5076653;28;20087;-67
2021/12/04 06:56:48;;;;;;;23.95;13.60;;;4.90;99.90;;;;;;5074651;28;20037;-66
2021/12/04 06:59:20;;;;;;;22.92;13.90;;;4.90;99.90;;;;;;5073851;28;20530;-67
2021/12/04 07:01:45;;;;;;;26.77;14.05;;;4.90;99.90;;;;;;5072825;28;20342;-66
2021/12/04 07:04:12;;;;;;;20.90;13.35;;;4.90;99.90;;;;;;5073355;28;20044;-66
2021/12/04 07:06:38;;;;;;;26.88;14.07;;;4.90;99.90;;;;;;5072670;28;20131;-66
2021/12/04 07:09:04;;;;;;;21.27;12.40;;;4.90;99.90;;;;;;5093039;28;20524;-66
2021/12/04 07:11:30;;;;;;;24.33;14.02;;;4.90;99.90;;;;;;5092335;28;20052;-67
2021/12/04 07:13:56;;;;;;;26.73;14.15;;;4.90;99.90;;;;;;5093278;28;20036;-66
2021/12/04 07:16:23;;;;;;;24.50;13.70;;;4.90;99.90;;;;;;5093333;28;20179;-66
2021/12/04 07:18:50;;;;;;;24.75;13.23;;;4.80;99.90;;;;;;5093484;28;20044;-65
2021/12/04 07:21:16;;;;;;;23.38;13.68;;;4.80;99.90;;;;;;5092383;28;20197;-66
2021/12/04 07:23:42;;;;;;;21.88;13.43;;;4.90;99.90;;;;;;5092422;28;20612;-66
2021/12/04 07:26:08;;;;;;;24.40;13.50;;;4.80;99.90;;;;;;5093500;28;20123;-66
2021/12/04 07:28:35;;;;;;;24.40;14.02;;;4.90;99.90;;;;;;5093538;28;20115;-65
2021/12/04 07:31:01;;;;;;;23.92;13.85;;;4.90;99.90;;;;;;5093172;28;20399;-66
2021/12/04 07:33:27;;;;;;;24.17;13.27;;;4.90;99.90;;;;;;5092000;28;20132;-66
2021/12/04 07:35:53;;;;;;;21.42;13.43;;;4.80;99.90;;;;;;5092708;28;20044;-66
2021/12/04 07:38:19;;;;;;;21.95;12.60;;;4.90;99.90;;;;;;5092059;28;20481;-66
2021/12/04 07:40:44;;;;;;;23.92;13.05;;;4.80;99.90;;;;;;5075334;28;20094;-65
2021/12/04 07:43:12;;;;;;;24.55;13.68;;;4.80;99.90;;;;;;5092599;28;20040;-66
2021/12/04 07:45:38;;;;;;;23.23;13.10;;;4.80;99.90;;;;;;5082970;28;20074;-65
2021/12/04 07:48:04;;;;;;;22.02;13.05;;;4.80;99.90;;;;;;5073517;28;20368;-66
2021/12/04 07:50:32;;;;;;;28.52;13.52;;;4.80;99.90;;;;;;5071655;28;20036;-66
2021/12/04 07:52:58;;;;;;;24.60;13.55;;;4.90;99.90;;;;;;5084148;28;20465;-65
2021/12/04 07:55:25;;;;;;;22.38;13.60;;;4.80;99.90;;;;;;5071653;28;20050;-66
2021/12/04 07:57:52;;;;;;;27.75;13.68;;;4.80;99.90;;;;;;5072970;28;20036;-67
2021/12/04 08:00:20;;;;;;;31.67;15.65;;;4.80;99.90;;;;;;5054616;28;20072;-66
2021/12/04 08:02:48;;;;;;;22.58;13.63;;;4.90;99.90;;;;;;5072503;28;20044;-65
2021/12/04 08:05:14;;;;;;;24.90;14.77;;;4.80;99.90;;;;;;5071848;28;20427;-64
2021/12/04 08:07:40;;;;;;;26.05;14.52;;;4.80;99.90;;;;;;5080597;28;20346;-66
2021/12/04 08:10:08;;;;;;;30.08;14.48;;;4.90;99.90;;;;;;5092158;28;20047;-65
2021/12/04 08:12:35;;;;;;;28.50;15.32;;;4.80;99.90;;;;;;5091669;28;20389;-67
2021/12/04 08:15:02;;;;;;;28.52;14.82;;;4.80;99.90;;;;;;5092075;28;20047;-65
2021/12/04 08:17:28;;;;;;;26.33;15.30;;;4.80;99.90;;;;;;5060707;28;20032;-66
2021/12/04 08:19:54;;;;;;;37.65;17.42;;;4.80;99.90;;;;;;5092345;28;20445;-65
2021/12/04 08:22:19;;;;;;;29.08;16.35;;;4.80;99.90;;;;;;5093065;28;20104;-66
2021/12/04 08:24:47;;;;;;;27.92;14.57;;;4.80;99.90;;;;;;5091378;28;20066;-65
2021/12/04 08:27:13;;;;;;;41.42;16.83;;;4.80;99.90;;;;;;5092775;28;20051;-66
2021/12/04 08:29:39;;;;;;;40.33;16.30;;;4.80;99.90;;;;;;5092019;28;20047;-68
2021/12/04 08:32:05;;;;;;;38.40;16.52;;;4.90;99.90;;;;;;5093006;28;20036;-65
2021/12/04 08:34:31;;;;;;;33.30;16.17;;;4.80;99.90;;;;;;5095144;28;20040;-65
2021/12/04 08:36:57;;;;;;;35.35;14.82;;;4.80;99.90;;;;;;5095228;28;20052;-65
2021/12/04 08:39:22;;;;;;;34.08;14.70;;;4.90;99.90;;;;;;5080770;28;20040;-66
2021/12/04 08:41:48;;;;;;;29.85;15.38;;;4.90;99.90;;;;;;5075557;28;20041;-66
2021/12/04 08:44:15;;;;;;;34.92;15.95;;;4.90;99.90;;;;;;5075683;28;20063;-65
2021/12/04 08:46:40;;;;;;;28.65;14.80;;;4.80;99.90;;;;;;5075595;28;20460;-70
2021/12/04 08:49:07;;;;;;;27.73;14.73;;;4.90;99.90;;;;;;5076970;28;20058;-65
2021/12/04 08:51:34;;;;;;;31.25;16.08;;;4.90;99.90;;;;;;5095389;28;20494;-66
2021/12/04 08:54:01;;;;;;;26.75;14.75;;;4.90;99.90;;;;;;5094530;28;20048;-66
2021/12/04 08:56:27;;;;;;;31.73;15.43;;;4.90;99.90;;;;;;5075703;28;20032;-65
2021/12/04 08:58:53;;;;;;;30.67;15.48;;;4.90;99.90;;;;;;5093193;28;20514;-66
2021/12/04 09:01:24;;;;;;;30.20;16.13;;;4.90;99.90;;;;;;5096048;28;20040;-64
2021/12/04 09:03:57;;;;;;;31.17;16.00;;;4.90;99.90;;;;;;5095892;28;20063;-65
2021/12/04 09:06:23;;;;;;;26.80;14.55;;;4.90;99.90;;;;;;5094758;28;20086;-65
2021/12/04 09:08:49;;;;;;;30.33;15.30;;;4.90;99.90;;;;;;5083171;28;20051;-62
2021/12/04 09:11:19;;;;;;;30.20;15.48;;;4.90;99.90;;;;;;5075933;28;20049;-63
2021/12/04 09:13:46;;;;;;;29.17;14.68;;;4.90;99.90;;;;;;5073350;28;20427;-63
2021/12/04 09:16:14;;;;;;;22.50;13.15;;;5.00;99.90;;;;;;5073464;28;20380;-64
2021/12/04 09:18:40;;;;;;;26.92;13.98;;;5.00;99.90;;;;;;5079022;28;20424;-67
2021/12/04 09:21:09;;;;;;;25.20;13.52;;;5.00;99.90;;;;;;5075117;28;20039;-65
2021/12/04 09:23:38;;;;;;;27.10;13.60;;;5.00;99.90;;;;;;5073526;28;20048;-65
2021/12/04 09:26:07;;;;;;;22.20;12.63;;;5.00;99.90;;;;;;5091527;28;20054;-65
2021/12/04 09:28:52;;;;;;;27.33;13.90;;;5.10;99.90;;;;;;5093734;28;20558;-65
2021/12/04 10:20:10;;;;;;;34.00;16.47;;;5.40;99.90;;;;;;5094104;28;20059;-66
2021/12/04 10:22:42;;;;;;;35.50;16.80;;;5.30;99.90;;;;;;5094267;28;20036;-66
2021/12/04 10:33:40;;;;;;;35.10;17.63;;;5.40;99.90;;;;;;5093723;28;20047;-66
2021/12/04 10:36:06;;;;;;;31.50;17.60;;;5.40;99.90;;;;;;5092853;28;20465;-65
2021/12/04 10:38:39;;;;;;;29.65;16.27;;;5.40;99.90;;;;;;5093586;28;20055;-65
2021/12/04 10:41:05;;;;;;;34.97;17.95;;;5.40;99.90;;;;;;5093748;28;20036;-65
2021/12/04 10:43:31;;;;;;;32.58;16.77;;;5.40;99.90;;;;;;5093186;28;20044;-65
2021/12/04 10:46:00;;;;;;;30.25;16.85;;;5.40;99.90;;;;;;5073604;28;20036;-67
2021/12/04 10:48:30;;;;;;;31.80;16.75;;;5.40;99.90;;;;;;5086076;28;20039;-66
2021/12/04 10:53:36;;;;;;;29.42;15.75;;;5.40;99.90;;;;;;5093187;28;20356;-67
2021/12/04 11:39:43;;;;;;;30.70;15.20;;;5.70;99.90;;;;;;5092188;28;20044;-67
2021/12/04 11:44:53;;;;;;;25.35;14.88;;;5.60;99.90;;;;;;5092127;28;19922;-68
2021/12/04 11:47:20;;;;;;;30.98;15.55;;;5.70;99.90;;;;;;5075347;28;20056;-68
2021/12/04 11:49:46;;;;;;;31.20;16.55;;;5.70;99.90;;;;;;5093306;28;20123;-68
2021/12/04 11:52:19;;;;;;;29.52;15.38;;;5.70;99.90;;;;;;5092025;28;20384;-68
2021/12/04 11:54:47;;;;;;;25.10;14.43;;;5.70;99.90;;;;;;5071555;28;20497;-68
2021/12/04 11:57:16;;;;;;;28.98;15.10;;;5.70;99.90;;;;;;5073559;28;20036;-69
2021/12/04 11:59:44;;;;;;;29.92;15.70;;;5.70;99.90;;;;;;5091979;28;20062;-68
2021/12/04 12:02:19;;;;;;;29.52;15.55;;;5.70;99.90;;;;;;5082401;28;20381;-67
2021/12/04 12:04:46;;;;;;;;;;;5.70;99.90;;;;;;5072892;28;20040;-68
2021/12/04 12:07:17;;;;;;;28.15;15.77;;;5.70;99.90;;;;;;5076329;28;19916;-69
2021/12/04 12:09:49;;;;;;;29.75;16.48;;;5.70;99.90;;;;;;5095994;28;20048;-69
2021/12/04 12:12:17;;;;;;;33.67;16.55;;;5.70;99.90;;;;;;5079662;28;20060;-70
2021/12/04 12:14:51;;;;;;;33.72;17.50;;;5.70;99.90;;;;;;5074722;28;20047;-69
2021/12/04 12:17:38;;;;;;;27.98;15.02;;;5.60;99.90;;;;;;5077333;28;20148;-70
2021/12/04 12:20:13;;;;;;;32.05;16.48;;;5.70;99.90;;;;;;5093458;28;20039;-68
2021/12/04 12:23:01;;;;;;;39.13;16.25;;;5.70;99.90;;;;;;5095298;28;20070;-69
2021/12/04 12:25:55;;;;;;;33.60;15.63;;;5.70;99.90;;;;;;5095263;28;20048;-67
2021/12/04 12:37:22;;;;;;;30.70;15.25;;;5.60;99.90;;;;;;5093159;28;20126;-69
2021/12/04 12:40:04;;;;;;;;;;;5.70;99.90;;;;;;5094668;28;20032;-70
2021/12/04 12:42:37;;;;;;;30.33;14.88;;;5.60;99.90;;;;;;5065547;28;19926;-69
2021/12/04 12:45:22;;;;;;;28.42;14.75;;;5.70;99.90;;;;;;5073554;28;20078;-69
2021/12/04 12:47:57;;;;;;;29.05;15.30;;;5.70;99.90;;;;;;5081293;28;20055;-70
2021/12/04 12:50:31;;;;;;;30.27;15.38;;;5.70;99.90;;;;;;5096057;28;20044;-69
2021/12/04 12:53:10;;;;;;;30.55;15.23;;;5.60;99.90;;;;;;5094623;28;20487;-69
2021/12/04 12:55:37;;;;;;;34.65;15.88;;;5.70;99.90;;;;;;5095054;28;20055;-68
2021/12/04 12:58:24;;;;;;;31.92;15.30;;;5.70;99.90;;;;;;5095676;28;20050;-69
2021/12/04 13:12:10;;;;;;;35.17;17.45;;;5.60;99.90;;;;;;5074394;28;20518;-66
2021/12/04 13:14:49;;;;;;;33.65;17.55;;;5.60;99.90;;;;;;5074246;28;20445;-67
2021/12/04 13:17:22;;;;;;;31.77;17.88;;;5.60;99.90;;;;;;5071858;28;20036;-66
2021/12/04 13:19:53;;;;;;;33.45;17.35;;;5.60;99.90;;;;;;5094886;28;20036;-66
2021/12/04 13:22:22;;;;;;;33.40;16.58;;;5.60;99.90;;;;;;5094111;28;20449;-67
2021/12/04 13:24:50;;;;;;;34.72;18.30;;;5.60;99.90;;;;;;5066028;28;20124;-66
2021/12/04 13:29:48;;;;;;;32.90;16.77;;;5.70;99.90;;;;;;5095663;28;20082;-67
2021/12/04 13:32:17;;;;;;;31.95;17.77;;;5.70;99.90;;;;;;5094208;28;20051;-66
2021/12/04 13:34:44;;;;;;;32.42;16.63;;;5.70;99.90;;;;;;5095341;28;20054;-67
2021/12/04 13:37:11;;;;;;;33.40;17.42;;;5.70;99.90;;;;;;5094006;28;20500;-67
2021/12/04 13:39:40;;;;;;;28.35;16.48;;;5.70;99.90;;;;;;5093935;28;20089;-66
2021/12/04 13:42:06;;;;;;;32.20;16.27;;;5.70;99.90;;;;;;5093927;28;20043;-65
2021/12/04 13:44:33;;;;;;;32.28;16.48;;;5.70;99.90;;;;;;5094811;28;20055;-67
2021/12/04 13:47:03;;;;;;;28.52;16.40;;;5.70;99.90;;;;;;5093828;28;20110;-67
2021/12/04 13:49:33;;;;;;;35.20;17.83;;;5.70;99.90;;;;;;5093661;28;20097;-66
2021/12/04 13:52:10;;;;;;;31.98;18.30;;;5.70;99.90;;;;;;5094253;28;20036;-66
2021/12/04 13:55:09;;;;;;;32.28;17.67;;;5.70;99.90;;;;;;5074144;28;20552;-67
2021/12/04 13:57:39;;;;;;;30.98;18.38;;;5.70;99.90;;;;;;5077464;28;20100;-67
2021/12/04 14:00:06;;;;;;;33.75;18.88;;;5.60;99.90;;;;;;5095017;28;20044;-66
2021/12/04 14:02:32;;;;;;;38.25;18.63;;;5.70;99.90;;;;;;5080128;28;20048;-66
2021/12/04 14:05:25;;;;;;;40.08;20.00;;;5.70;99.90;;;;;;5073495;28;20136;-67
2021/12/04 14:07:57;;;;;;;37.80;20.00;;;5.70;99.90;;;;;;5059290;28;20062;-67
2021/12/04 14:10:30;;;;;;;35.72;18.42;;;5.70;99.90;;;;;;5093602;28;20135;-66
2021/12/04 14:12:57;;;;;;;37.55;20.02;;;5.60;99.90;;;;;;5093138;28;20063;-67
2021/12/04 14:15:24;;;;;;;41.13;21.02;;;5.70;99.90;;;;;;5093405;28;20780;-66
2021/12/04 14:17:56;;;;;;;41.13;20.75;;;5.60;99.90;;;;;;5092963;28;20035;-67
2021/12/04 14:20:23;;;;;;;37.38;18.63;;;5.60;99.90;;;;;;5085383;28;20036;-65
2021/12/04 14:22:52;;;;;;;43.58;20.48;;;5.60;99.90;;;;;;5073820;28;20048;-67
2021/12/04 14:25:19;;;;;;;40.13;20.65;;;5.60;99.90;;;;;;5084345;28;20039;-67
2021/12/04 14:27:46;;;;;;;37.53;20.42;;;5.60;99.90;;;;;;5093358;28;20040;-67
2021/12/04 14:30:20;;;;;;;36.50;19.30;;;5.60;99.90;;;;;;5092198;28;20044;-66
2021/12/04 14:32:53;;;;;;;37.53;20.40;;;5.60;99.90;;;;;;5063173;28;20045;-67
2021/12/04 14:35:20;;;;;;;38.63;20.17;;;5.60;99.90;;;;;;5072791;28;20289;-67
2021/12/04 14:37:51;;;;;;;36.75;19.13;;;5.60;99.90;;;;;;5078021;28;20044;-67
2021/12/04 14:40:41;;;;;;;35.03;17.75;;;5.70;99.90;;;;;;5093063;28;20075;-66
2021/12/04 14:43:09;;;;;;;33.95;16.90;;;5.60;99.90;;;;;;5092303;28;20419;-66
2021/12/04 14:45:39;;;;;;;32.78;17.08;;;5.60;99.90;;;;;;5094041;28;20051;-68
2021/12/04 14:48:18;;;;;;;29.25;14.95;;;5.70;99.90;;;;;;5092542;28;20046;-67
2021/12/04 14:50:49;;;;;;;29.25;14.55;;;5.70;99.90;;;;;;5092680;28;20071;-66
2021/12/04 14:53:18;;;;;;;27.40;15.00;;;5.70;99.90;;;;;;5085583;28;20121;-66
2021/12/04 14:55:47;;;;;;;27.33;14.68;;;5.70;99.90;;;;;;5056048;28;20515;-67
2021/12/04 14:58:17;;;;;;;23.27;14.15;;;5.60;99.90;;;;;;5081132;28;20031;-67
2021/12/04 15:00:47;;;;;;;24.98;13.90;;;5.60;99.90;;;;;;5092851;28;20377;-66
2021/12/04 15:03:17;;;;;;;28.98;17.30;;;5.60;99.90;;;;;;5093615;28;20450;-66
2021/12/04 15:05:50;;;;;;;30.30;15.20;;;5.60;99.90;;;;;;5092755;28;20067;-67
2021/12/04 15:08:26;;;;;;;26.75;15.55;;;5.60;99.90;;;;;;5092261;28;20385;-67
2021/12/04 15:10:56;;;;;;;28.02;17.08;;;5.70;99.90;;;;;;5092003;28;20461;-67
2021/12/04 15:13:25;;;;;;;28.88;16.20;;;5.70;99.90;;;;;;5092389;28;20516;-66
2021/12/04 15:15:53;;;;;;;30.27;15.05;;;5.70;99.90;;;;;;5093573;28;20044;-66
2021/12/04 15:18:21;;;;;;;26.02;16.65;;;5.70;99.90;;;;;;5093189;28;20051;-68
2021/12/04 15:21:02;;;;;;;24.08;15.18;;;5.70;99.90;;;;;;5092623;28;20052;-69
2021/12/04 15:23:29;;;;;;;27.35;15.73;;;5.70;99.90;;;;;;5074704;28;20048;-69
2021/12/04 15:25:58;;;;;;;28.70;14.90;;;5.70;99.90;;;;;;5075749;28;20079;-70
2021/12/04 15:28:26;;;;;;;28.75;15.75;;;5.70;99.90;;;;;;5084697;28;20092;-69
2021/12/04 15:30:55;;;;;;;26.15;14.38;;;5.70;99.90;;;;;;5072184;28;20051;-70
2021/12/04 15:33:37;;;;;;;26.75;14.55;;;5.70;99.90;;;;;;5089351;28;20047;-70
2021/12/04 15:36:05;;;;;;;25.00;14.93;;;5.70;99.90;;;;;;5088420;28;20451;-69
2021/12/04 15:38:50;;;;;;;23.95;14.70;;;5.70;99.90;;;;;;5087168;28;20461;-70
2021/12/04 15:54:26;;;;;;;20.65;12.48;;;5.70;99.90;;;;;;5078623;28;20044;-69
2021/12/04 15:56:54;;;;;;;25.08;15.35;;;5.70;99.90;;;;;;5076590;28;20370;-68
2021/12/04 15:59:28;;;;;;;21.42;13.50;;;5.60;99.90;;;;;;5093008;28;20032;-67
2021/12/04 16:01:59;;;;;;;20.50;12.98;;;5.60;99.90;;;;;;5096277;28;20040;-67
2021/12/04 16:04:33;;;;;;;21.23;13.20;;;5.60;99.90;;;;;;5095888;28;20036;-68
2021/12/04 16:07:00;;;;;;;22.70;13.82;;;5.70;99.90;;;;;;5096414;28;20115;-68
2021/12/04 16:09:31;;;;;;;19.92;12.70;;;5.60;99.90;;;;;;5079008;28;20044;-69
2021/12/04 16:12:12;;;;;;;20.02;13.05;;;5.60;99.90;;;;;;5096104;28;20067;-69
2021/12/04 16:14:40;;;;;;;20.50;14.02;;;5.60;99.90;;;;;;5095645;28;20676;-68
2021/12/04 16:17:08;;;;;;;25.98;17.27;;;5.70;99.90;;;;;;5095690;28;20075;-68
2021/12/04 16:19:36;;;;;;;19.63;13.73;;;5.60;99.90;;;;;;5095731;28;20124;-68